createdAt,value
2018-05-04T00:00:46.619Z,9.20
2018-05-04T00:01:49.851Z,9.10
2018-05-04T00:02:52.807Z,9.10
2018-05-04T00:03:56.042Z,9.10
2018-05-04T00:04:59.253Z,9.10
2018-05-04T00:06:01.721Z,9.10
2018-05-04T00:07:04.962Z,9.10
2018-05-04T00:08:07.429Z,9.10
2018-05-04T00:09:09.885Z,9.10
2018-05-04T00:10:13.116Z,9.00
2018-05-04T00:11:15.586Z,9.00
2018-05-04T00:12:18.050Z,9.00
2018-05-04T00:13:20.633Z,9.00
2018-05-04T00:14:23.325Z,9.00
2018-05-04T00:15:25.884Z,9.00
2018-05-04T00:16:29.131Z,9.00
2018-05-04T00:17:31.599Z,9.00
2018-05-04T00:18:34.075Z,9.00
2018-05-04T00:19:37.295Z,9.00
2018-05-04T00:20:40.571Z,9.00
2018-05-04T00:21:43.035Z,9.00
2018-05-04T00:22:45.481Z,9.00
2018-05-04T00:23:47.942Z,9.00
2018-05-04T00:24:50.397Z,9.00
2018-05-04T00:25:52.868Z,9.00
2018-05-04T00:26:56.132Z,8.90
2018-05-04T00:27:58.598Z,8.90
2018-05-04T00:29:02.033Z,8.90
2018-05-04T00:30:04.502Z,8.90
2018-05-04T00:31:07.731Z,8.90
2018-05-04T00:32:10.185Z,8.90
2018-05-04T00:33:14.017Z,8.90
2018-05-04T00:34:16.568Z,8.90
2018-05-04T00:35:19.848Z,8.90
2018-05-04T00:36:22.332Z,8.90
2018-05-04T00:37:24.796Z,8.80
2018-05-04T00:38:27.273Z,8.80
2018-05-04T00:39:30.484Z,8.80
2018-05-04T00:40:32.954Z,8.80
2018-05-04T00:41:35.407Z,8.80
2018-05-04T00:42:37.860Z,8.80
2018-05-04T00:43:40.440Z,8.80
2018-05-04T00:44:42.961Z,8.80
2018-05-04T00:45:45.481Z,8.70
2018-05-04T00:46:48.013Z,8.70
2018-05-04T00:47:51.233Z,8.80
2018-05-04T00:48:54.468Z,8.70
2018-05-04T00:49:56.929Z,8.70
2018-05-04T00:50:59.410Z,8.70
2018-05-04T00:52:01.873Z,8.80
2018-05-04T00:53:04.338Z,8.80
2018-05-04T00:54:18.626Z,8.70
2018-05-04T00:55:21.088Z,8.70
2018-05-04T00:56:24.307Z,8.80
2018-05-04T00:57:27.128Z,8.80
2018-05-04T00:58:29.609Z,8.80
2018-05-04T00:59:32.858Z,8.80
2018-05-04T01:00:35.372Z,8.80
2018-05-04T01:01:38.621Z,8.80
2018-05-04T01:02:41.087Z,8.80
2018-05-04T01:03:43.540Z,8.90
2018-05-04T01:04:46.001Z,8.90
2018-05-04T01:05:48.459Z,8.80
2018-05-04T01:06:50.915Z,8.80
2018-05-04T01:07:53.378Z,8.80
2018-05-04T01:08:55.856Z,8.80
2018-05-04T01:09:59.874Z,8.80
2018-05-04T01:11:02.336Z,8.80
2018-05-04T01:12:04.808Z,8.80
2018-05-04T01:13:07.268Z,8.80
2018-05-04T01:14:09.732Z,8.70
2018-05-04T01:15:12.974Z,8.70
2018-05-04T01:16:15.432Z,8.70
2018-05-04T01:17:18.460Z,8.70
2018-05-04T01:18:20.936Z,8.70
2018-05-04T01:19:23.504Z,8.60
2018-05-04T01:20:25.967Z,8.60
2018-05-04T01:21:28.708Z,8.60
2018-05-04T01:22:31.169Z,8.60
2018-05-04T01:23:34.397Z,8.60
2018-05-04T01:24:36.852Z,8.50
2018-05-04T01:25:39.369Z,8.60
2018-05-04T01:26:42.583Z,8.60
2018-05-04T01:27:45.042Z,8.50
2018-05-04T01:29:48.468Z,8.50
2018-05-04T01:30:50.975Z,8.50
2018-05-04T01:31:54.193Z,8.50
2018-05-04T01:32:56.646Z,8.50
2018-05-04T01:33:59.873Z,8.50
2018-05-04T01:35:03.183Z,8.50
2018-05-04T01:36:05.696Z,8.50
2018-05-04T01:37:08.160Z,8.50
2018-05-04T01:38:11.579Z,8.40
2018-05-04T01:39:14.042Z,8.40
2018-05-04T01:40:17.305Z,8.40
2018-05-04T01:41:19.834Z,8.40
2018-05-04T01:42:22.323Z,8.40
2018-05-04T01:43:25.198Z,8.40
2018-05-04T01:44:27.693Z,8.40
2018-05-04T01:45:31.063Z,8.30
2018-05-04T01:46:33.546Z,8.30
2018-05-04T01:47:36.025Z,8.30
2018-05-04T01:48:38.523Z,8.30
2018-05-04T01:49:41.767Z,8.30
2018-05-04T01:50:44.978Z,8.30
2018-05-04T01:51:47.432Z,8.30
2018-05-04T01:52:49.893Z,8.30
2018-05-04T01:53:52.490Z,8.30
2018-05-04T01:54:55.716Z,8.20
2018-05-04T01:55:58.956Z,8.20
2018-05-04T01:57:02.353Z,8.20
2018-05-04T01:58:04.821Z,8.20
2018-05-04T01:59:08.052Z,8.10
2018-05-04T02:00:10.513Z,8.10
2018-05-04T02:01:12.964Z,8.10
2018-05-04T02:02:15.459Z,8.10
2018-05-04T02:03:17.994Z,8.10
2018-05-04T02:04:20.512Z,8.10
2018-05-04T02:05:22.992Z,8.10
2018-05-04T02:06:25.459Z,8.10
2018-05-04T02:07:27.920Z,8.10
2018-05-04T02:08:30.414Z,8.10
2018-05-04T02:09:32.865Z,8.10
2018-05-04T02:10:35.344Z,8.10
2018-05-04T02:11:38.567Z,8.00
2018-05-04T02:12:41.029Z,8.00
2018-05-04T02:13:43.558Z,8.00
2018-05-04T02:14:46.047Z,8.00
2018-05-04T02:15:48.530Z,8.10
2018-05-04T02:16:50.997Z,8.00
2018-05-04T02:17:53.459Z,8.00
2018-05-04T02:18:55.918Z,8.00
2018-05-04T02:19:58.377Z,8.00
2018-05-04T02:21:01.648Z,8.00
2018-05-04T02:22:04.094Z,8.00
2018-05-04T02:23:06.574Z,8.00
2018-05-04T02:24:09.808Z,7.90
2018-05-04T02:25:13.049Z,7.90
2018-05-04T02:26:15.517Z,7.90
2018-05-04T02:27:17.980Z,7.90
2018-05-04T02:28:20.452Z,7.90
2018-05-04T02:29:22.905Z,7.90
2018-05-04T02:30:25.374Z,7.80
2018-05-04T02:31:27.931Z,7.80
2018-05-04T02:32:30.411Z,7.80
2018-05-04T02:33:38.681Z,7.80
2018-05-04T02:34:41.363Z,7.80
2018-05-04T02:35:43.844Z,7.80
2018-05-04T02:36:47.061Z,7.80
2018-05-04T02:37:49.525Z,7.70
2018-05-04T02:38:52.761Z,7.70
2018-05-04T02:39:56.001Z,7.80
2018-05-04T02:40:59.233Z,7.70
2018-05-04T02:42:02.466Z,7.70
2018-05-04T02:43:05.841Z,7.70
2018-05-04T02:44:08.313Z,7.70
2018-05-04T02:45:10.786Z,7.80
2018-05-04T02:46:14.065Z,7.70
2018-05-04T02:47:16.565Z,7.70
2018-05-04T02:48:19.021Z,7.70
2018-05-04T02:49:22.105Z,7.70
2018-05-04T02:50:24.555Z,7.60
2018-05-04T02:51:27.046Z,7.60
2018-05-04T02:52:29.493Z,7.60
2018-05-04T02:53:32.739Z,7.50
2018-05-04T02:54:35.964Z,7.50
2018-05-04T02:55:39.209Z,7.50
2018-05-04T02:56:42.426Z,7.50
2018-05-04T02:57:44.882Z,7.50
2018-05-04T02:58:47.346Z,7.50
2018-05-04T02:59:49.862Z,7.40
2018-05-04T03:00:52.358Z,7.40
2018-05-04T03:01:55.673Z,7.40
2018-05-04T03:02:58.132Z,7.40
2018-05-04T03:04:01.362Z,7.40
2018-05-04T03:05:04.589Z,7.30
2018-05-04T03:06:07.149Z,7.30
2018-05-04T03:07:09.613Z,7.30
2018-05-04T03:08:12.069Z,7.30
2018-05-04T03:09:15.302Z,7.30
2018-05-04T03:10:17.825Z,7.30
2018-05-04T03:11:20.255Z,7.30
2018-05-04T03:12:22.817Z,7.30
2018-05-04T03:13:25.294Z,7.20
2018-05-04T03:14:27.752Z,7.20
2018-05-04T03:15:30.980Z,7.20
2018-05-04T03:16:33.436Z,7.20
2018-05-04T03:17:35.909Z,7.20
2018-05-04T03:18:38.473Z,7.20
2018-05-04T03:19:40.936Z,7.20
2018-05-04T03:20:43.406Z,7.10
2018-05-04T03:21:46.639Z,7.10
2018-05-04T03:22:49.239Z,7.10
2018-05-04T03:23:51.692Z,7.10
2018-05-04T03:24:54.152Z,7.10
2018-05-04T03:25:56.619Z,7.10
2018-05-04T03:26:59.073Z,7.00
2018-05-04T03:28:02.293Z,7.00
2018-05-04T03:29:04.758Z,7.00
2018-05-04T03:30:07.209Z,7.00
2018-05-04T03:31:09.684Z,6.90
2018-05-04T03:33:26.661Z,6.90
2018-05-04T03:34:29.114Z,7.00
2018-05-04T03:35:32.199Z,6.90
2018-05-04T03:36:34.676Z,6.90
2018-05-04T03:37:37.136Z,7.00
2018-05-04T03:38:40.379Z,6.90
2018-05-04T03:39:43.621Z,6.90
2018-05-04T03:40:46.926Z,6.90
2018-05-04T03:41:49.506Z,7.00
2018-05-04T03:42:52.774Z,7.00
2018-05-04T03:43:55.266Z,7.00
2018-05-04T03:44:58.490Z,6.90
2018-05-04T03:46:01.731Z,6.90
2018-05-04T03:47:04.196Z,6.90
2018-05-04T03:48:06.672Z,6.90
2018-05-04T03:49:09.221Z,6.90
2018-05-04T03:50:12.477Z,6.90
2018-05-04T03:51:15.453Z,6.90
2018-05-04T03:52:17.908Z,6.90
2018-05-04T03:53:20.380Z,6.90
2018-05-04T03:54:22.855Z,6.90
2018-05-04T03:55:25.417Z,6.90
2018-05-04T03:56:27.882Z,6.90
2018-05-04T03:57:42.316Z,6.90
2018-05-04T03:58:57.366Z,6.90
2018-05-04T04:00:11.796Z,6.90
2018-05-04T04:01:26.221Z,6.90
2018-05-04T04:02:56.226Z,6.90
2018-05-04T04:04:08.522Z,6.90
2018-05-04T04:05:11.737Z,6.90
2018-05-04T04:06:14.300Z,6.90
2018-05-04T04:07:16.795Z,7.00
2018-05-04T04:08:19.356Z,7.00
2018-05-04T04:09:21.820Z,7.00
2018-05-04T04:10:24.273Z,7.10
2018-05-04T04:11:26.835Z,7.10
2018-05-04T04:12:29.372Z,7.10
2018-05-04T04:13:32.224Z,7.10
2018-05-04T04:14:34.672Z,7.10
2018-05-04T04:15:37.140Z,7.20
2018-05-04T04:16:39.664Z,7.20
2018-05-04T04:17:43.700Z,7.30
2018-05-04T04:18:46.172Z,7.20
2018-05-04T04:19:48.625Z,7.30
2018-05-04T04:20:51.084Z,7.30
2018-05-04T04:21:54.334Z,7.40
2018-05-04T04:22:57.572Z,7.40
2018-05-04T04:24:00.804Z,7.50
2018-05-04T04:25:03.257Z,7.40
2018-05-04T04:26:06.285Z,7.50
2018-05-04T04:27:08.751Z,7.60
2018-05-04T04:28:11.279Z,7.60
2018-05-04T04:29:14.465Z,7.70
2018-05-04T04:30:17.675Z,7.70
2018-05-04T04:31:20.151Z,7.70
2018-05-04T04:32:22.622Z,7.80
2018-05-04T04:33:25.096Z,7.80
2018-05-04T04:34:27.716Z,7.80
2018-05-04T04:35:30.941Z,7.90
2018-05-04T04:36:34.179Z,8.00
2018-05-04T04:37:36.665Z,8.00
2018-05-04T04:38:39.153Z,8.00
2018-05-04T04:39:42.396Z,8.10
2018-05-04T04:40:46.398Z,8.10
2018-05-04T04:41:48.864Z,8.10
2018-05-04T04:42:52.105Z,8.20
2018-05-04T04:43:55.356Z,8.20
2018-05-04T04:44:58.587Z,8.30
2018-05-04T04:46:01.031Z,8.30
2018-05-04T04:47:03.565Z,8.30
2018-05-04T04:48:06.047Z,8.40
2018-05-04T04:49:08.483Z,8.40
2018-05-04T04:50:11.757Z,8.40
2018-05-04T04:51:14.217Z,8.40
2018-05-04T04:52:16.818Z,8.50
2018-05-04T04:53:19.275Z,8.50
2018-05-04T04:54:21.732Z,8.50
2018-05-04T04:55:25.084Z,8.60
2018-05-04T04:56:27.509Z,8.60
2018-05-04T04:57:31.088Z,8.70
2018-05-04T04:58:33.614Z,8.70
2018-05-04T04:59:36.689Z,8.70
2018-05-04T05:00:39.160Z,8.70
2018-05-04T05:01:42.403Z,8.80
2018-05-04T05:02:44.869Z,8.80
2018-05-04T05:03:47.334Z,8.80
2018-05-04T05:04:50.556Z,8.80
2018-05-04T05:05:53.033Z,8.80
2018-05-04T05:06:55.533Z,8.90
2018-05-04T05:07:58.800Z,8.90
2018-05-04T05:09:01.269Z,8.90
2018-05-04T05:10:03.742Z,8.90
2018-05-04T05:11:06.196Z,8.90
2018-05-04T05:12:08.694Z,8.90
2018-05-04T05:13:11.178Z,8.80
2018-05-04T05:14:13.627Z,8.90
2018-05-04T05:15:16.929Z,9.00
2018-05-04T05:16:19.392Z,8.90
2018-05-04T05:17:22.663Z,9.10
2018-05-04T05:18:25.129Z,9.00
2018-05-04T05:19:28.463Z,9.00
2018-05-04T05:20:30.933Z,9.00
2018-05-04T05:21:34.170Z,9.00
2018-05-04T05:22:37.403Z,9.10
2018-05-04T05:23:40.677Z,9.10
2018-05-04T05:24:43.107Z,9.10
2018-05-04T05:25:45.676Z,9.20
2018-05-04T05:26:48.356Z,9.20
2018-05-04T05:27:50.808Z,9.20
2018-05-04T05:28:53.293Z,9.20
2018-05-04T05:29:56.064Z,9.20
2018-05-04T05:30:58.694Z,9.20
2018-05-04T05:32:01.160Z,9.30
2018-05-04T05:33:04.413Z,9.40
2018-05-04T05:34:07.644Z,9.40
2018-05-04T05:35:10.909Z,9.50
2018-05-04T05:36:13.371Z,9.50
2018-05-04T05:37:15.853Z,9.60
2018-05-04T05:38:18.375Z,9.60
2018-05-04T05:39:21.617Z,9.70
2018-05-04T05:40:24.855Z,9.80
2018-05-04T05:41:28.097Z,9.90
2018-05-04T05:42:31.404Z,9.90
2018-05-04T05:43:35.353Z,10.00
2018-05-04T05:44:37.818Z,10.00
2018-05-04T05:45:41.054Z,10.10
2018-05-04T05:46:43.519Z,10.10
2018-05-04T05:47:46.007Z,10.10
2018-05-04T05:48:48.458Z,10.10
2018-05-04T05:49:50.937Z,10.10
2018-05-04T05:50:53.413Z,10.10
2018-05-04T05:51:56.122Z,10.20
2018-05-04T05:52:58.556Z,10.30
2018-05-04T05:54:01.096Z,10.30
2018-05-04T05:55:03.620Z,10.40
2018-05-04T05:56:06.111Z,10.40
2018-05-04T05:57:09.373Z,10.60
2018-05-04T05:58:11.904Z,10.60
2018-05-04T05:59:14.370Z,10.70
2018-05-04T06:00:16.832Z,10.80
2018-05-04T06:01:20.081Z,10.90
2018-05-04T06:02:23.313Z,11.00
2018-05-04T06:03:25.964Z,11.00
2018-05-04T06:04:28.493Z,11.10
2018-05-04T06:05:30.982Z,11.20
2018-05-04T06:06:33.441Z,11.50
2018-05-04T06:07:35.896Z,11.70
2018-05-04T06:08:38.382Z,12.00
2018-05-04T06:09:41.665Z,12.60
2018-05-04T06:10:45.047Z,12.60
2018-05-04T06:11:47.621Z,12.90
2018-05-04T06:12:50.094Z,13.30
2018-05-04T06:13:54.095Z,13.80
2018-05-04T06:14:56.587Z,13.80
2018-05-04T06:15:59.048Z,14.00
2018-05-04T06:17:01.616Z,14.30
2018-05-04T06:18:04.152Z,14.40
2018-05-04T06:19:06.606Z,14.70
2018-05-04T06:20:09.112Z,15.10
2018-05-04T06:21:12.064Z,15.30
2018-05-04T06:22:15.320Z,16.00
2018-05-04T06:23:17.883Z,15.90
2018-05-04T06:24:20.354Z,16.10
2018-05-04T06:25:23.600Z,15.90
2018-05-04T06:26:26.857Z,16.10
2018-05-04T06:27:29.872Z,16.00
2018-05-04T06:28:33.161Z,16.10
2018-05-04T06:29:35.847Z,16.10
2018-05-04T06:30:39.099Z,16.40
2018-05-04T06:31:42.368Z,16.50
2018-05-04T06:32:45.002Z,16.50
2018-05-04T06:33:47.565Z,16.60
2018-05-04T06:34:50.722Z,16.50
2018-05-04T06:35:53.167Z,16.50
2018-05-04T06:36:55.631Z,16.50
2018-05-04T06:37:58.139Z,16.70
2018-05-04T06:39:00.637Z,17.00
2018-05-04T06:40:03.870Z,17.20
2018-05-04T06:41:07.129Z,17.40
2018-05-04T06:42:09.615Z,17.40
2018-05-04T06:43:12.085Z,17.60
2018-05-04T06:44:14.588Z,17.90
2018-05-04T06:45:17.828Z,18.00
2018-05-04T06:46:21.133Z,18.10
2018-05-04T06:47:23.628Z,18.00
2018-05-04T06:48:26.127Z,18.10
2018-05-04T06:49:29.390Z,18.20
2018-05-04T06:50:31.895Z,18.20
2018-05-04T06:51:35.140Z,18.40
2018-05-04T06:52:38.398Z,18.70
2018-05-04T06:53:40.876Z,18.60
2018-05-04T06:54:43.345Z,18.70
2018-05-04T06:55:46.581Z,19.10
2018-05-04T06:56:49.823Z,18.90
2018-05-04T06:57:53.071Z,18.70
2018-05-04T06:58:55.607Z,18.70
2018-05-04T06:59:58.076Z,18.60
2018-05-04T07:01:00.653Z,18.70
2018-05-04T07:02:03.224Z,19.10
2018-05-04T07:03:05.669Z,19.30
2018-05-04T07:04:08.245Z,19.30
2018-05-04T07:05:10.709Z,19.10
2018-05-04T07:06:13.280Z,19.00
2018-05-04T07:07:16.513Z,18.70
2018-05-04T07:08:18.985Z,18.60
2018-05-04T07:09:21.485Z,18.40
2018-05-04T07:10:24.064Z,18.70
2018-05-04T07:11:26.533Z,18.80
2018-05-04T07:12:29.009Z,19.00
2018-05-04T07:13:31.554Z,19.10
2018-05-04T07:14:34.793Z,19.10
2018-05-04T07:15:38.048Z,18.80
2018-05-04T07:16:41.278Z,18.90
2018-05-04T07:17:44.644Z,19.00
2018-05-04T07:18:47.896Z,19.10
2018-05-04T07:19:50.357Z,19.00
2018-05-04T07:20:52.918Z,19.20
2018-05-04T07:21:55.472Z,19.20
2018-05-04T07:23:02.713Z,19.20
2018-05-04T07:24:05.208Z,19.30
2018-05-04T07:25:08.006Z,19.40
2018-05-04T07:26:10.542Z,19.20
2018-05-04T07:27:13.008Z,19.30
2018-05-04T07:28:16.310Z,19.40
2018-05-04T07:29:18.795Z,19.40
2018-05-04T07:30:21.283Z,19.30
2018-05-04T07:31:24.523Z,19.30
2018-05-04T07:32:27.785Z,19.40
2018-05-04T07:33:31.037Z,19.50
2018-05-04T07:34:33.696Z,19.50
2018-05-04T07:35:36.170Z,19.60
2018-05-04T07:36:39.417Z,20.00
2018-05-04T07:37:42.638Z,19.80
2018-05-04T07:38:45.201Z,19.80
2018-05-04T07:39:47.663Z,20.10
2018-05-04T07:40:50.121Z,20.00
2018-05-04T07:41:53.496Z,20.50
2018-05-04T07:42:56.705Z,20.50
2018-05-04T07:43:59.989Z,20.50
2018-05-04T07:45:02.451Z,20.60
2018-05-04T07:46:04.918Z,20.30
2018-05-04T07:47:07.371Z,20.10
2018-05-04T07:48:09.844Z,20.00
2018-05-04T07:49:12.400Z,19.80
2018-05-04T07:50:15.645Z,19.50
2018-05-04T07:51:18.135Z,19.50
2018-05-04T07:52:20.701Z,19.60
2018-05-04T07:53:23.177Z,19.50
2018-05-04T07:54:25.639Z,19.50
2018-05-04T07:55:28.121Z,19.60
2018-05-04T07:56:36.518Z,19.40
2018-05-04T07:57:39.771Z,19.70
2018-05-04T07:58:42.297Z,19.70
2018-05-04T07:59:44.809Z,19.90
2018-05-04T08:00:48.065Z,20.40
2018-05-04T08:01:50.580Z,20.40
2018-05-04T08:02:53.884Z,20.00
2018-05-04T08:03:56.358Z,20.00
2018-05-04T08:04:59.702Z,20.40
2018-05-04T08:06:02.925Z,20.50
2018-05-04T08:07:06.131Z,20.40
2018-05-04T08:08:08.728Z,20.40
2018-05-04T08:09:11.223Z,20.20
2018-05-04T08:10:14.451Z,20.40
2018-05-04T08:11:17.677Z,20.70
2018-05-04T08:12:20.350Z,20.70
2018-05-04T08:13:26.001Z,20.40
2018-05-04T08:14:28.587Z,20.30
2018-05-04T08:15:31.148Z,20.30
2018-05-04T08:16:33.611Z,20.20
2018-05-04T08:17:36.861Z,20.70
2018-05-04T08:18:39.323Z,20.70
2018-05-04T08:19:41.803Z,21.00
2018-05-04T08:20:45.041Z,21.20
2018-05-04T08:21:48.259Z,20.80
2018-05-04T08:22:50.824Z,20.80
2018-05-04T08:23:54.051Z,20.20
2018-05-04T08:24:57.380Z,19.90
2018-05-04T08:25:59.861Z,19.90
2018-05-04T08:27:02.347Z,20.00
2018-05-04T08:28:05.563Z,20.10
2018-05-04T08:29:08.016Z,20.20
2018-05-04T08:30:11.261Z,20.30
2018-05-04T08:31:14.503Z,20.30
2018-05-04T08:32:17.720Z,20.20
2018-05-04T08:33:20.198Z,20.30
2018-05-04T08:34:22.655Z,20.20
2018-05-04T08:35:25.155Z,19.90
2018-05-04T08:36:27.661Z,19.60
2018-05-04T08:37:30.113Z,19.40
2018-05-04T08:38:32.609Z,19.30
2018-05-04T08:39:35.114Z,19.10
2018-05-04T08:40:38.479Z,18.80
2018-05-04T08:41:40.907Z,18.80
2018-05-04T08:42:43.399Z,18.70
2018-05-04T08:43:46.640Z,18.70
2018-05-04T08:44:49.195Z,18.70
2018-05-04T08:45:52.425Z,18.90
2018-05-04T08:46:55.710Z,18.90
2018-05-04T08:47:58.172Z,18.90
2018-05-04T08:49:00.635Z,19.00
2018-05-04T08:50:03.759Z,18.90
2018-05-04T08:51:07.106Z,18.80
2018-05-04T08:52:09.517Z,18.80
2018-05-04T08:53:12.784Z,18.60
2018-05-04T08:54:15.357Z,18.60
2018-05-04T08:55:18.559Z,18.40
2018-05-04T08:56:21.068Z,18.40
2018-05-04T08:57:24.322Z,18.30
2018-05-04T08:58:27.532Z,18.00
2018-05-04T08:59:30.082Z,18.00
2018-05-04T09:00:32.608Z,18.10
2018-05-04T09:01:35.092Z,18.10
2018-05-04T09:02:37.576Z,18.00
2018-05-04T09:03:40.121Z,17.70
2018-05-04T09:04:42.716Z,17.60
2018-05-04T09:05:45.284Z,17.50
2018-05-04T09:06:47.758Z,17.40
2018-05-04T09:07:51.040Z,17.50
2018-05-04T09:08:53.533Z,17.40
2018-05-04T09:09:56.768Z,17.40
2018-05-04T09:11:00.005Z,17.40
2018-05-04T09:12:03.324Z,17.40
2018-05-04T09:13:07.310Z,17.40
2018-05-04T09:14:10.542Z,17.40
2018-05-04T09:15:13.814Z,17.20
2018-05-04T09:16:16.263Z,17.20
2018-05-04T09:17:18.742Z,17.10
2018-05-04T09:18:21.978Z,17.00
2018-05-04T09:19:25.217Z,17.10
2018-05-04T09:20:27.682Z,17.00
2018-05-04T09:21:30.217Z,17.20
2018-05-04T09:22:32.669Z,17.20
2018-05-04T09:23:35.219Z,17.30
2018-05-04T09:24:38.532Z,17.30
2018-05-04T09:25:41.010Z,17.20
2018-05-04T09:26:43.484Z,17.30
2018-05-04T09:27:45.968Z,17.30
2018-05-04T09:28:48.414Z,17.10
2018-05-04T09:29:50.932Z,17.10
2018-05-04T09:30:53.496Z,17.00
2018-05-04T09:31:56.764Z,16.90
2018-05-04T09:32:59.228Z,16.90
2018-05-04T09:34:01.729Z,16.80
2018-05-04T09:35:04.205Z,16.70
2018-05-04T09:36:06.685Z,16.60
2018-05-04T09:37:09.225Z,16.60
2018-05-04T09:38:11.714Z,16.70
2018-05-04T09:39:14.959Z,16.60
2018-05-04T09:40:18.851Z,16.70
2018-05-04T09:41:21.349Z,16.70
2018-05-04T09:42:23.800Z,16.70
2018-05-04T09:43:26.347Z,16.80
2018-05-04T09:44:29.574Z,16.90
2018-05-04T09:45:32.049Z,16.90
2018-05-04T09:46:34.496Z,17.00
2018-05-04T09:47:36.999Z,17.10
2018-05-04T09:48:40.308Z,16.80
2018-05-04T09:49:42.772Z,16.80
2018-05-04T09:50:46.012Z,16.70
2018-05-04T09:51:49.250Z,16.80
2018-05-04T09:52:51.711Z,16.80
2018-05-04T09:53:54.218Z,16.90
2018-05-04T09:54:57.458Z,16.60
2018-05-04T09:56:00.758Z,16.60
2018-05-04T09:57:03.245Z,16.60
2018-05-04T09:58:05.728Z,16.60
2018-05-04T09:59:08.222Z,16.60
2018-05-04T10:00:10.696Z,16.70
2018-05-04T10:01:14.016Z,16.80
2018-05-04T10:02:16.494Z,16.80
2018-05-04T10:03:18.949Z,16.90
2018-05-04T10:04:21.409Z,16.80
2018-05-04T10:05:24.669Z,16.70
2018-05-04T10:06:27.482Z,16.70
2018-05-04T10:07:30.280Z,16.60
2018-05-04T10:08:32.761Z,16.60
2018-05-04T10:09:35.216Z,16.60
2018-05-04T10:10:37.713Z,16.60
2018-05-04T10:11:40.179Z,16.60
2018-05-04T10:12:42.648Z,16.60
2018-05-04T10:13:45.879Z,16.60
2018-05-04T10:14:49.124Z,16.70
2018-05-04T10:15:55.263Z,16.80
2018-05-04T10:16:57.752Z,16.80
2018-05-04T10:18:00.318Z,16.90
2018-05-04T10:19:02.835Z,16.80
2018-05-04T10:20:05.330Z,16.70
2018-05-04T10:21:09.324Z,16.70
2018-05-04T10:22:11.840Z,16.80
2018-05-04T10:23:14.323Z,16.90
2018-05-04T10:24:17.152Z,16.90
2018-05-04T10:25:19.662Z,16.90
2018-05-04T10:26:22.153Z,16.80
2018-05-04T10:27:24.614Z,16.80
2018-05-04T10:28:27.098Z,16.90
2018-05-04T10:29:29.564Z,16.90
2018-05-04T10:30:32.035Z,16.90
2018-05-04T10:31:35.312Z,17.00
2018-05-04T10:32:37.813Z,17.00
2018-05-04T10:33:40.281Z,17.00
2018-05-04T10:34:42.801Z,17.00
2018-05-04T10:35:45.310Z,16.90
2018-05-04T10:36:47.811Z,16.90
2018-05-04T10:37:51.078Z,16.80
2018-05-04T10:38:53.624Z,16.80
2018-05-04T10:39:56.069Z,16.80
2018-05-04T10:40:58.532Z,16.80
2018-05-04T10:42:01.018Z,16.70
2018-05-04T10:43:03.499Z,16.70
2018-05-04T10:44:06.009Z,16.80
2018-05-04T10:45:08.541Z,16.80
2018-05-04T10:46:10.959Z,16.80
2018-05-04T10:47:13.424Z,16.70
2018-05-04T10:48:15.891Z,16.80
2018-05-04T10:49:19.134Z,16.80
2018-05-04T10:50:22.394Z,16.80
2018-05-04T10:51:24.847Z,16.80
2018-05-04T10:52:27.395Z,16.70
2018-05-04T10:53:29.867Z,16.70
2018-05-04T10:54:32.362Z,16.70
2018-05-04T10:55:34.829Z,16.70
2018-05-04T10:56:37.321Z,16.60
2018-05-04T10:57:40.570Z,16.60
2018-05-04T10:58:43.811Z,16.60
2018-05-04T10:59:47.057Z,16.60
2018-05-04T11:00:50.297Z,16.60
2018-05-04T11:01:53.528Z,16.70
2018-05-04T11:02:56.028Z,16.70
2018-05-04T11:03:58.513Z,16.70
2018-05-04T11:05:01.002Z,16.60
2018-05-04T11:06:03.482Z,16.60
2018-05-04T11:07:06.006Z,16.60
2018-05-04T11:08:08.488Z,16.60
2018-05-04T11:09:11.819Z,16.60
2018-05-04T11:10:14.290Z,16.60
2018-05-04T11:11:16.871Z,16.60
2018-05-04T11:12:19.940Z,16.60
2018-05-04T11:13:22.391Z,16.60
2018-05-04T11:14:24.864Z,16.70
2018-05-04T11:15:28.067Z,16.70
2018-05-04T11:16:30.540Z,16.80
2018-05-04T11:17:34.242Z,16.70
2018-05-04T11:18:36.710Z,16.70
2018-05-04T11:19:39.697Z,16.70
2018-05-04T11:20:42.178Z,16.70
2018-05-04T11:21:45.421Z,16.70
2018-05-04T11:22:48.855Z,16.70
2018-05-04T11:23:51.321Z,16.70
2018-05-04T11:24:53.787Z,16.70
2018-05-04T11:25:56.543Z,16.70
2018-05-04T11:26:59.894Z,16.70
2018-05-04T11:28:03.144Z,16.80
2018-05-04T11:29:05.600Z,16.80
2018-05-04T11:30:08.060Z,16.80
2018-05-04T11:31:10.530Z,16.80
2018-05-04T11:32:13.026Z,16.90
2018-05-04T11:33:15.585Z,16.90
2018-05-04T11:34:18.057Z,16.80
2018-05-04T11:35:20.526Z,16.80
2018-05-04T11:36:23.003Z,16.80
2018-05-04T11:37:25.567Z,16.80
2018-05-04T11:38:28.796Z,16.80
2018-05-04T11:39:33.249Z,16.80
2018-05-04T11:40:35.723Z,16.80
2018-05-04T11:41:38.188Z,16.90
2018-05-04T11:42:41.509Z,16.90
2018-05-04T11:43:43.977Z,16.90
2018-05-04T11:44:46.468Z,16.90
2018-05-04T11:45:48.941Z,16.90
2018-05-04T11:46:52.200Z,17.00
2018-05-04T11:47:54.740Z,16.90
2018-05-04T11:48:57.215Z,17.00
2018-05-04T11:49:59.682Z,17.00
2018-05-04T11:51:02.138Z,17.10
2018-05-04T11:52:04.603Z,17.10
2018-05-04T11:53:07.858Z,17.10
2018-05-04T11:54:11.081Z,17.20
2018-05-04T11:55:13.651Z,17.20
2018-05-04T11:56:16.067Z,17.20
2018-05-04T11:57:18.602Z,17.20
2018-05-04T11:58:21.757Z,17.30
2018-05-04T11:59:24.273Z,17.30
2018-05-04T12:00:26.753Z,17.30
2018-05-04T12:01:29.302Z,17.20
2018-05-04T12:02:31.824Z,17.20
2018-05-04T12:03:34.377Z,17.20
2018-05-04T12:04:36.848Z,17.30
2018-05-04T12:05:40.105Z,17.40
2018-05-04T12:06:43.319Z,17.40
2018-05-04T12:07:45.796Z,17.40
2018-05-04T12:08:48.243Z,17.30
2018-05-04T12:09:50.708Z,17.30
2018-05-04T12:10:53.254Z,17.30
2018-05-04T12:11:55.632Z,17.20
2018-05-04T12:12:58.106Z,17.20
2018-05-04T12:14:00.635Z,17.20
2018-05-04T12:15:04.094Z,17.20
2018-05-04T12:16:06.584Z,17.20
2018-05-04T12:17:09.818Z,17.20
2018-05-04T12:18:13.853Z,17.20
2018-05-04T12:19:16.326Z,17.20
2018-05-04T12:20:19.780Z,17.20
2018-05-04T12:21:22.260Z,17.10
2018-05-04T12:22:24.728Z,17.10
2018-05-04T12:23:27.358Z,17.10
2018-05-04T12:24:29.824Z,17.10
2018-05-04T12:25:32.289Z,17.20
2018-05-04T12:26:35.544Z,17.30
2018-05-04T12:27:38.799Z,17.40
2018-05-04T12:28:41.272Z,17.30
2018-05-04T12:29:43.744Z,17.40
2018-05-04T12:30:46.751Z,17.40
2018-05-04T12:31:50.014Z,17.40
2018-05-04T12:32:53.252Z,17.40
2018-05-04T12:33:56.485Z,17.30
2018-05-04T12:34:59.876Z,17.40
2018-05-04T12:36:02.357Z,17.30
2018-05-04T12:37:05.665Z,17.40
2018-05-04T12:38:08.856Z,17.40
2018-05-04T12:39:12.072Z,17.40
2018-05-04T12:40:15.306Z,17.40
2018-05-04T12:41:17.787Z,17.40
2018-05-04T12:42:20.427Z,17.40
2018-05-04T12:43:22.901Z,17.30
2018-05-04T12:44:26.142Z,17.40
2018-05-04T12:45:28.596Z,17.40
2018-05-04T12:46:31.056Z,17.40
2018-05-04T12:47:33.520Z,17.50
2018-05-04T12:48:36.818Z,17.40
2018-05-04T12:49:39.286Z,17.40
2018-05-04T12:50:41.920Z,17.40
2018-05-04T12:51:45.167Z,17.40
2018-05-04T12:52:48.393Z,17.40
2018-05-04T12:53:50.899Z,17.40
2018-05-04T12:54:53.362Z,17.40
2018-05-04T12:55:56.579Z,17.40
2018-05-04T12:56:59.051Z,17.40
2018-05-04T12:58:01.522Z,17.40
2018-05-04T12:59:04.027Z,17.40
2018-05-04T13:00:06.514Z,17.40
2018-05-04T13:01:08.973Z,17.40
2018-05-04T13:02:11.462Z,17.40
2018-05-04T13:03:14.671Z,17.40
2018-05-04T13:04:17.232Z,17.40
2018-05-04T13:05:19.757Z,17.50
2018-05-04T13:06:22.229Z,17.50
2018-05-04T13:07:24.690Z,17.50
2018-05-04T13:08:28.313Z,17.60
2018-05-04T13:09:30.881Z,17.60
2018-05-04T13:10:33.353Z,17.60
2018-05-04T13:11:35.890Z,17.60
2018-05-04T13:12:38.401Z,17.60
2018-05-04T13:13:40.892Z,17.60
2018-05-04T13:14:43.365Z,17.60
2018-05-04T13:15:45.828Z,17.50
2018-05-04T13:16:48.388Z,17.50
2018-05-04T13:17:50.890Z,17.60
2018-05-04T13:18:53.411Z,17.50
2018-05-04T13:19:56.680Z,17.60
2018-05-04T13:20:59.929Z,17.60
2018-05-04T13:22:02.671Z,17.50
2018-05-04T13:23:05.948Z,17.60
2018-05-04T13:24:09.203Z,17.70
2018-05-04T13:25:12.841Z,17.70
2018-05-04T13:26:15.354Z,17.70
2018-05-04T13:27:17.834Z,17.70
2018-05-04T13:28:20.321Z,17.70
2018-05-04T13:29:23.567Z,17.60
2018-05-04T13:30:26.841Z,17.70
2018-05-04T13:31:29.424Z,17.60
2018-05-04T13:32:31.885Z,17.70
2018-05-04T13:33:34.361Z,17.70
2018-05-04T13:34:37.219Z,17.60
2018-05-04T13:35:40.510Z,17.60
2018-05-04T13:36:42.975Z,17.60
2018-05-04T13:37:45.432Z,17.70
2018-05-04T13:38:47.962Z,17.60
2018-05-04T13:39:50.381Z,17.70
2018-05-04T13:40:53.292Z,17.70
2018-05-04T13:41:55.320Z,17.70
2018-05-04T13:42:58.568Z,17.60
2018-05-04T13:44:01.092Z,17.60